Rhonda Lamulle — WDC8441 — position and weather

sailwx.info

Track history (hours):
 
Tides and Currents Weather Stations Pressure Air Temp Water Temp Dewpoint Dewpoint Depression Visibility Wind Speed Wind Dir Waves Ship Positions

Rhonda Lamulle

Owner: Florida Marine Transporters, Inc., Mandeville, LA. More information available from US FCC via Universal Licensing System and Coast Guard Vessel Documentation Center.

Last reported at 2015-May-05 07:23 UTC. Time now 2015-May-05 22:21 UTC.
Position N 30°01' W 089°53'.

Length 13 m; draft 3 m.

Type: Towing. MMSI: 367087104.

Date/timePositionNaut miles runAvg speedWind from/ knotsBaromVisibWave heightAir tempDewpointWater temp
2015-May-05 07:23N 30°01' W 089°53'6 7.5
2015-May-05 06:33N 29°60' W 089°60'3 2.6
2015-May-05 05:31N 29°58' W 090°02'0 0.0
2015-May-05 04:18N 29°58' W 090°02'7 1.0
2015-May-04 21:13N 29°50' W 090°03'0 0.0
2015-May-03 17:16N 29°50' W 090°03'0 0.0
2015-May-03 15:23N 29°50' W 090°03'0 0.0
2015-May-02 15:13N 29°50' W 090°03'0 0.0
2015-May-02 13:27N 29°50' W 090°03'0 0.0
2015-May-02 11:32N 29°50' W 090°03'0 0.0
2015-May-02 09:22N 29°50' W 090°03'0 0.0
2015-May-02 06:04N 29°50' W 090°03'0 0.0
2015-May-02 05:23N 29°50' W 090°03'0 0.0
2015-May-02 04:15N 29°50' W 090°03'0 0.0
2015-May-02 03:29N 29°50' W 090°03'0 0.0
2015-May-02 01:32N 29°50' W 090°03'0 0.0
2015-May-02 00:17N 29°50' W 090°03'0 0.0
2015-May-01 23:21N 29°50' W 090°03'0 0.0
2015-May-01 22:22N 29°50' W 090°03'0 0.1
2015-May-01 19:14N 29°50' W 090°03'1 0.8
2015-May-01 18:32N 29°51' W 090°02'4 4.4
2015-May-01 17:32N 29°54' W 089°59'1 0.9
2015-May-01 16:14N 29°55' W 089°58'0 0.3
2015-May-01 15:14N 29°55' W 089°58'  
2015-Apr-29 06:31N 30°23' W 086°58'4 4.7
2015-Apr-29 05:33N 30°24' W 086°53'5 4.9
2015-Apr-29 04:33N 30°24' W 086°47'4 4.0
2015-Apr-29 03:29N 30°24' W 086°42'0 0.0
2015-Apr-29 02:33N 30°24' W 086°42'0 0.0
2015-Apr-29 01:31N 30°24' W 086°42'0 0.0
2015-Apr-29 00:33N 30°24' W 086°42'0 0.0
2015-Apr-28 23:33N 30°24' W 086°42'0 0.0
2015-Apr-28 22:33N 30°24' W 086°42'0 0.0
2015-Apr-28 21:33N 30°24' W 086°42'0 0.0
2015-Apr-28 20:33N 30°24' W 086°42'0 0.0
2015-Apr-28 19:33N 30°24' W 086°42'0 0.0
2015-Apr-28 18:33N 30°24' W 086°42'0 0.0
2015-Apr-28 17:33N 30°24' W 086°42'0 0.0
2015-Apr-28 16:33N 30°24' W 086°42'0 0.0
2015-Apr-28 15:33N 30°24' W 086°42'0 0.0
2015-Apr-28 14:33N 30°24' W 086°42'0 0.0
2015-Apr-28 13:33N 30°24' W 086°42'1 1.5
2015-Apr-28 12:33N 30°24' W 086°40'6 5.8
2015-Apr-28 11:33N 30°24' W 086°34'6 6.1
2015-Apr-28 10:34N 30°28' W 086°28'1 1.3
2015-Apr-28 09:33N 30°29' W 086°29'0 0.0
2015-Apr-28 08:34N 30°29' W 086°29'506040573.8
2015-Apr-28 08:26N 30°29' E 011°23'50605765.1
2015-Apr-28 07:33N 30°29' W 086°29'0 0.0
2015-Apr-28 06:34N 30°29' W 086°29'0 0.0
2015-Apr-28 05:33N 30°29' W 086°29'0 0.0
2015-Apr-28 04:33N 30°29' W 086°29'0 0.0
2015-Apr-28 03:33N 30°29' W 086°29'0 0.0
2015-Apr-28 02:33N 30°29' W 086°29'506028027.1
2015-Apr-28 02:23N 30°29' E 011°23'50606196.5
2015-Apr-28 01:34N 30°29' W 086°29'0 0.0
2015-Apr-28 00:34N 30°29' W 086°29'0 0.0
2015-Apr-27 23:33N 30°29' W 086°29'0 0.0
2015-Apr-27 22:34N 30°29' W 086°29'506023970.6
2015-Apr-27 22:21N 30°29' E 011°23'50606376.5
2015-Apr-27 21:33N 30°29' W 086°29'506015156.1
2015-Apr-27 21:13N 30°29' E 011°23'50607654.5
2015-Apr-27 20:34N 30°29' W 086°29'0 0.0
2015-Apr-27 19:34N 30°29' W 086°29'0 0.0
2015-Apr-27 18:34N 30°29' W 086°29'0 0.0
2015-Apr-27 17:33N 30°29' W 086°29'0 0.0
2015-Apr-27 16:34N 30°29' W 086°29'506011985.3
2015-Apr-27 16:08N 30°29' E 011°23'50608712.4
2015-Apr-27 15:33N 30°29' W 086°29'0 0.0
2015-Apr-27 14:33N 30°29' W 086°29'447310191.8
2015-Apr-27 14:07N 30°29' E 000°01'44738011.5
2015-Apr-27 13:34N 30°29' W 086°29'0 0.0
2015-Apr-27 12:33N 30°29' W 086°29'0 0.0
2015-Apr-27 11:34N 30°29' W 086°29'0 0.0
2015-Apr-27 10:34N 30°29' W 086°29'0 0.0
2015-Apr-26 22:34N 30°29' W 086°29'18766196.1
2015-Apr-26 22:15N 30°29' W 122°46'18762689.7
2015-Apr-26 21:34N 30°29' W 086°29'0 0.0
2015-Apr-26 20:34N 30°29' W 086°29'0 0.0
2015-Apr-26 19:33N 30°29' W 086°29'0 0.0
2015-Apr-26 18:34N 30°29' W 086°29'0 0.0
2015-Apr-26 17:34N 30°29' W 086°29'0 0.0
2015-Apr-26 16:34N 30°29' W 086°29'3838.4
2015-Apr-26 15:34N 29°51' W 086°20'3838.4
2015-Apr-26 14:34N 30°29' W 086°29'0 0.0
2015-Apr-26 13:34N 30°29' W 086°29'0 0.0
2015-Apr-26 12:34N 30°29' W 086°29'0 0.0
2015-Apr-26 11:34N 30°29' W 086°29'0 0.0
2015-Apr-26 10:34N 30°29' W 086°29'0 0.0
2015-Apr-26 09:34N 30°29' W 086°29'0 0.0
2015-Apr-26 08:15N 30°29' W 086°29'0 0.0
2015-Apr-26 07:34N 30°29' W 086°29'0 0.0
2015-Apr-26 06:34N 30°29' W 086°29'0 0.0
2015-Apr-26 05:34N 30°29' W 086°29'0 0.0
2015-Apr-26 04:34N 30°29' W 086°29'0 0.0
2015-Apr-26 03:34N 30°29' W 086°29'0 0.0
2015-Apr-26 02:34N 30°29' W 086°29'0 0.0
2015-Apr-26 01:34N 30°29' W 086°29'0 0.0
2015-Apr-26 00:34N 30°29' W 086°29'0 0.0
2015-Apr-25 23:34N 30°29' W 086°29'1 0.7
2015-Apr-25 22:34N 30°29' W 086°29'5 4.7
2015-Apr-25 21:34N 30°26' W 086°25'6 5.8
2015-Apr-25 20:34N 30°26' W 086°18'6 5.5
2015-Apr-25 19:32N 30°25' W 086°12'  
Track history (hours):
 
Tides and Currents Weather Stations Pressure Air Temp Water Temp Dewpoint Dewpoint Depression Visibility Wind Speed Wind Dir Waves Ship Positions

Rhonda Lamulle

Owner: Florida Marine Transporters, Inc., Mandeville, LA. More information available from US FCC via Universal Licensing System and Coast Guard Vessel Documentation Center.

Last reported at 2015-May-05 07:23 UTC. Time now 2015-May-05 22:21 UTC.
Position N 30°01' W 089°53'.

Length 13 m; draft 3 m.

Type: Towing. MMSI: 367087104.

Date/timePositionNaut miles runAvg speedWind from/ knotsBaromVisibWave heightAir tempDewpointWater temp
2015-May-05 07:23N 30°01' W 089°53'6 7.5
2015-May-05 06:33N 29°60' W 089°60'3 2.6
2015-May-05 05:31N 29°58' W 090°02'0 0.0
2015-May-05 04:18N 29°58' W 090°02'7 1.0
2015-May-04 21:13N 29°50' W 090°03'0 0.0
2015-May-03 17:16N 29°50' W 090°03'0 0.0
2015-May-03 15:23N 29°50' W 090°03'0 0.0
2015-May-02 15:13N 29°50' W 090°03'0 0.0
2015-May-02 13:27N 29°50' W 090°03'0 0.0
2015-May-02 11:32N 29°50' W 090°03'0 0.0
2015-May-02 09:22N 29°50' W 090°03'0 0.0
2015-May-02 06:04N 29°50' W 090°03'0 0.0
2015-May-02 05:23N 29°50' W 090°03'0 0.0
2015-May-02 04:15N 29°50' W 090°03'0 0.0
2015-May-02 03:29N 29°50' W 090°03'0 0.0
2015-May-02 01:32N 29°50' W 090°03'0 0.0
2015-May-02 00:17N 29°50' W 090°03'0 0.0
2015-May-01 23:21N 29°50' W 090°03'0 0.0
2015-May-01 22:22N 29°50' W 090°03'0 0.1
2015-May-01 19:14N 29°50' W 090°03'1 0.8
2015-May-01 18:32N 29°51' W 090°02'4 4.4
2015-May-01 17:32N 29°54' W 089°59'1 0.9
2015-May-01 16:14N 29°55' W 089°58'0 0.3
2015-May-01 15:14N 29°55' W 089°58'  
2015-Apr-29 06:31N 30°23' W 086°58'4 4.7
2015-Apr-29 05:33N 30°24' W 086°53'5 4.9
2015-Apr-29 04:33N 30°24' W 086°47'4 4.0
2015-Apr-29 03:29N 30°24' W 086°42'0 0.0
2015-Apr-29 02:33N 30°24' W 086°42'0 0.0
2015-Apr-29 01:31N 30°24' W 086°42'0 0.0
2015-Apr-29 00:33N 30°24' W 086°42'0 0.0
2015-Apr-28 23:33N 30°24' W 086°42'0 0.0
2015-Apr-28 22:33N 30°24' W 086°42'0 0.0
2015-Apr-28 21:33N 30°24' W 086°42'0 0.0
2015-Apr-28 20:33N 30°24' W 086°42'0 0.0
2015-Apr-28 19:33N 30°24' W 086°42'0 0.0
2015-Apr-28 18:33N 30°24' W 086°42'0 0.0
2015-Apr-28 17:33N 30°24' W 086°42'0 0.0
2015-Apr-28 16:33N 30°24' W 086°42'0 0.0
2015-Apr-28 15:33N 30°24' W 086°42'0 0.0
2015-Apr-28 14:33N 30°24' W 086°42'0 0.0
2015-Apr-28 13:33N 30°24' W 086°42'1 1.5
2015-Apr-28 12:33N 30°24' W 086°40'6 5.8
2015-Apr-28 11:33N 30°24' W 086°34'6 6.1
2015-Apr-28 10:34N 30°28' W 086°28'1 1.3
2015-Apr-28 09:33N 30°29' W 086°29'0 0.0
2015-Apr-28 08:34N 30°29' W 086°29'506040573.8
2015-Apr-28 08:26N 30°29' E 011°23'50605765.1
2015-Apr-28 07:33N 30°29' W 086°29'0 0.0
2015-Apr-28 06:34N 30°29' W 086°29'0 0.0
2015-Apr-28 05:33N 30°29' W 086°29'0 0.0
2015-Apr-28 04:33N 30°29' W 086°29'0 0.0
2015-Apr-28 03:33N 30°29' W 086°29'0 0.0
2015-Apr-28 02:33N 30°29' W 086°29'506028027.1
2015-Apr-28 02:23N 30°29' E 011°23'50606196.5
2015-Apr-28 01:34N 30°29' W 086°29'0 0.0
2015-Apr-28 00:34N 30°29' W 086°29'0 0.0
2015-Apr-27 23:33N 30°29' W 086°29'0 0.0
2015-Apr-27 22:34N 30°29' W 086°29'506023970.6
2015-Apr-27 22:21N 30°29' E 011°23'50606376.5
2015-Apr-27 21:33N 30°29' W 086°29'506015156.1
2015-Apr-27 21:13N 30°29' E 011°23'50607654.5
2015-Apr-27 20:34N 30°29' W 086°29'0 0.0
2015-Apr-27 19:34N 30°29' W 086°29'0 0.0
2015-Apr-27 18:34N 30°29' W 086°29'0 0.0
2015-Apr-27 17:33N 30°29' W 086°29'0 0.0
2015-Apr-27 16:34N 30°29' W 086°29'506011985.3
2015-Apr-27 16:08N 30°29' E 011°23'50608712.4
2015-Apr-27 15:33N 30°29' W 086°29'0 0.0
2015-Apr-27 14:33N 30°29' W 086°29'447310191.8
2015-Apr-27 14:07N 30°29' E 000°01'44738011.5
2015-Apr-27 13:34N 30°29' W 086°29'0 0.0
2015-Apr-27 12:33N 30°29' W 086°29'0 0.0
2015-Apr-27 11:34N 30°29' W 086°29'0 0.0
2015-Apr-27 10:34N 30°29' W 086°29'0 0.0
2015-Apr-26 22:34N 30°29' W 086°29'18766196.1
2015-Apr-26 22:15N 30°29' W 122°46'18762689.7
2015-Apr-26 21:34N 30°29' W 086°29'0 0.0
2015-Apr-26 20:34N 30°29' W 086°29'0 0.0
2015-Apr-26 19:33N 30°29' W 086°29'0 0.0
2015-Apr-26 18:34N 30°29' W 086°29'0 0.0
2015-Apr-26 17:34N 30°29' W 086°29'0 0.0
2015-Apr-26 16:34N 30°29' W 086°29'3838.4
2015-Apr-26 15:34N 29°51' W 086°20'3838.4
2015-Apr-26 14:34N 30°29' W 086°29'0 0.0
2015-Apr-26 13:34N 30°29' W 086°29'0 0.0
2015-Apr-26 12:34N 30°29' W 086°29'0 0.0
2015-Apr-26 11:34N 30°29' W 086°29'0 0.0
2015-Apr-26 10:34N 30°29' W 086°29'0 0.0
2015-Apr-26 09:34N 30°29' W 086°29'0 0.0
2015-Apr-26 08:15N 30°29' W 086°29'0 0.0
2015-Apr-26 07:34N 30°29' W 086°29'0 0.0
2015-Apr-26 06:34N 30°29' W 086°29'0 0.0
2015-Apr-26 05:34N 30°29' W 086°29'0 0.0
2015-Apr-26 04:34N 30°29' W 086°29'0 0.0
2015-Apr-26 03:34N 30°29' W 086°29'0 0.0
2015-Apr-26 02:34N 30°29' W 086°29'0 0.0
2015-Apr-26 01:34N 30°29' W 086°29'0 0.0
2015-Apr-26 00:34N 30°29' W 086°29'0 0.0
2015-Apr-25 23:34N 30°29' W 086°29'1 0.7
2015-Apr-25 22:34N 30°29' W 086°29'5 4.7
2015-Apr-25 21:34N 30°26' W 086°25'6 5.8
2015-Apr-25 20:34N 30°26' W 086°18'6 5.5
2015-Apr-25 19:32N 30°25' W 086°12'  

Dump ship's entire track history